sensor_id;sensor_type;location;lat;lon;timestamp;pressure;altitude;pressure_sealevel;temperature;humidity
6835;BME280;3455;42.150;24.734;2022-08-19T00:00:09;68005.31;;;25.19;59.13
6835;BME280;3455;42.150;24.734;2022-08-19T00:02:36;67979.91;;;25.15;59.29
6835;BME280;3455;42.150;24.734;2022-08-19T00:05:04;67988.50;;;25.14;59.41
6835;BME280;3455;42.150;24.734;2022-08-19T00:07:30;67981.44;;;25.03;59.80
6835;BME280;3455;42.150;24.734;2022-08-19T00:09:57;67938.00;;;25.08;59.17
6835;BME280;3455;42.150;24.734;2022-08-19T00:12:24;67985.75;;;25.20;59.09
6835;BME280;3455;42.150;24.734;2022-08-19T00:14:51;68009.56;;;25.32;58.50
6835;BME280;3455;42.150;24.734;2022-08-19T00:17:20;67976.78;;;25.40;58.09
6835;BME280;3455;42.150;24.734;2022-08-19T00:19:47;68025.31;;;25.46;57.76
6835;BME280;3455;42.150;24.734;2022-08-19T00:22:14;67973.78;;;25.12;58.50
6835;BME280;3455;42.150;24.734;2022-08-19T00:24:41;67983.19;;;25.04;58.85
6835;BME280;3455;42.150;24.734;2022-08-19T00:27:09;67984.50;;;25.15;58.18
6835;BME280;3455;42.150;24.734;2022-08-19T00:29:35;67977.19;;;25.27;58.22
6835;BME280;3455;42.150;24.734;2022-08-19T00:32:03;67967.81;;;25.18;58.30
6835;BME280;3455;42.150;24.734;2022-08-19T00:34:32;67993.03;;;25.24;58.87
6835;BME280;3455;42.150;24.734;2022-08-19T00:36:58;67964.19;;;25.06;58.68
6835;BME280;3455;42.150;24.734;2022-08-19T00:39:25;67994.94;;;25.19;58.70
6835;BME280;3455;42.150;24.734;2022-08-19T00:41:52;67948.13;;;25.10;58.92
6835;BME280;3455;42.150;24.734;2022-08-19T00:44:22;67963.94;;;25.29;57.95
6835;BME280;3455;42.150;24.734;2022-08-19T00:46:52;67971.84;;;25.17;58.60
6835;BME280;3455;42.150;24.734;2022-08-19T00:49:21;67990.84;;;25.16;59.05
6835;BME280;3455;42.150;24.734;2022-08-19T00:51:59;67967.19;;;25.13;58.92
6835;BME280;3455;42.150;24.734;2022-08-19T00:54:27;67975.22;;;25.11;59.23
6835;BME280;3455;42.150;24.734;2022-08-19T00:56:57;67961.22;;;25.19;59.38
6835;BME280;3455;42.150;24.734;2022-08-19T00:59:25;68009.44;;;25.23;59.41
6835;BME280;3455;42.150;24.734;2022-08-19T01:01:52;67997.28;;;25.21;59.48
6835;BME280;3455;42.150;24.734;2022-08-19T01:04:18;67973.53;;;25.14;59.83
6835;BME280;3455;42.150;24.734;2022-08-19T01:06:45;67983.66;;;25.16;60.35
6835;BME280;3455;42.150;24.734;2022-08-19T01:09:13;67986.75;;;25.12;60.40
6835;BME280;3455;42.150;24.734;2022-08-19T01:11:43;67977.56;;;25.13;60.34
6835;BME280;3455;42.150;24.734;2022-08-19T01:14:11;68011.19;;;25.24;60.65
6835;BME280;3455;42.150;24.734;2022-08-19T01:16:39;67999.47;;;25.14;60.76
6835;BME280;3455;42.150;24.734;2022-08-19T01:19:24;67980.28;;;25.02;61.61
6835;BME280;3455;42.150;24.734;2022-08-19T01:21:55;67947.84;;;24.92;61.85
6835;BME280;3455;42.150;24.734;2022-08-19T01:24:26;67937.59;;;25.01;61.67
6835;BME280;3455;42.150;24.734;2022-08-19T01:26:53;67970.16;;;24.79;62.40
6835;BME280;3455;42.150;24.734;2022-08-19T01:29:20;67934.75;;;24.82;62.73
6835;BME280;3455;42.150;24.734;2022-08-19T01:31:47;67925.81;;;24.81;62.80
6835;BME280;3455;42.150;24.734;2022-08-19T01:34:18;67923.34;;;24.70;63.26
6835;BME280;3455;42.150;24.734;2022-08-19T01:36:46;67951.34;;;24.74;63.18
6835;BME280;3455;42.150;24.734;2022-08-19T01:39:16;67913.50;;;24.66;63.31
6835;BME280;3455;42.150;24.734;2022-08-19T01:41:44;68111.69;;;24.67;63.22
6835;BME280;3455;42.150;24.734;2022-08-19T01:44:11;67897.97;;;24.66;64.11
6835;BME280;3455;42.150;24.734;2022-08-19T01:46:39;67933.25;;;24.79;63.42
6835;BME280;3455;42.150;24.734;2022-08-19T01:49:06;67950.72;;;24.90;62.72
6835;BME280;3455;42.150;24.734;2022-08-19T01:51:33;67939.69;;;24.84;62.65
6835;BME280;3455;42.150;24.734;2022-08-19T01:54:00;67921.16;;;24.77;62.89
6835;BME280;3455;42.150;24.734;2022-08-19T01:56:27;67934.63;;;24.94;61.88
6835;BME280;3455;42.150;24.734;2022-08-19T01:58:57;67927.31;;;24.64;63.10
6835;BME280;3455;42.150;24.734;2022-08-19T02:01:26;67923.88;;;24.66;63.16
6835;BME280;3455;42.150;24.734;2022-08-19T02:03:53;67962.00;;;24.72;62.36
6835;BME280;3455;42.150;24.734;2022-08-19T02:06:20;67928.31;;;24.56;63.17
6835;BME280;3455;42.150;24.734;2022-08-19T02:08:47;67905.19;;;24.49;63.86
6835;BME280;3455;42.150;24.734;2022-08-19T02:11:19;67864.63;;;24.32;64.45
6835;BME280;3455;42.150;24.734;2022-08-19T02:13:47;67875.75;;;24.26;64.27
6835;BME280;3455;42.150;24.734;2022-08-19T02:16:16;67853.94;;;24.29;64.35
6835;BME280;3455;42.150;24.734;2022-08-19T02:18:43;67880.44;;;24.30;64.24
6835;BME280;3455;42.150;24.734;2022-08-19T02:21:10;67842.47;;;24.13;65.15
6835;BME280;3455;42.150;24.734;2022-08-19T02:23:38;67870.63;;;24.10;65.06
6835;BME280;3455;42.150;24.734;2022-08-19T02:26:05;67847.00;;;24.07;65.09
6835;BME280;3455;42.150;24.734;2022-08-19T02:28:32;67881.72;;;24.20;64.37
6835;BME280;3455;42.150;24.734;2022-08-19T02:30:59;67876.63;;;24.24;63.78
6835;BME280;3455;42.150;24.734;2022-08-19T02:33:29;67862.16;;;24.21;64.03
6835;BME280;3455;42.150;24.734;2022-08-19T02:35:56;67806.81;;;23.77;65.60
6835;BME280;3455;42.150;24.734;2022-08-19T02:38:23;67850.22;;;23.92;65.36
6835;BME280;3455;42.150;24.734;2022-08-19T02:40:54;67864.06;;;23.95;66.65
6835;BME280;3455;42.150;24.734;2022-08-19T02:43:22;67831.91;;;23.99;66.75
6835;BME280;3455;42.150;24.734;2022-08-19T02:45:49;67795.97;;;23.44;67.91
6835;BME280;3455;42.150;24.734;2022-08-19T02:48:17;67851.28;;;24.04;67.71
6835;BME280;3455;42.150;24.734;2022-08-19T02:50:46;67826.41;;;23.96;67.83
6835;BME280;3455;42.150;24.734;2022-08-19T02:53:16;67828.34;;;23.91;67.82
6835;BME280;3455;42.150;24.734;2022-08-19T02:55:46;67817.28;;;23.81;68.28
6835;BME280;3455;42.150;24.734;2022-08-19T02:58:14;67844.31;;;23.82;68.50
6835;BME280;3455;42.150;24.734;2022-08-19T03:00:43;67890.34;;;23.82;68.19
6835;BME280;3455;42.150;24.734;2022-08-19T03:03:10;67825.34;;;23.84;68.56
6835;BME280;3455;42.150;24.734;2022-08-19T03:05:36;67842.56;;;23.81;68.99
6835;BME280;3455;42.150;24.734;2022-08-19T03:08:05;67779.44;;;23.73;68.97
6835;BME280;3455;42.150;24.734;2022-08-19T03:10:31;67804.75;;;23.73;69.36
6835;BME280;3455;42.150;24.734;2022-08-19T03:12:58;67812.78;;;23.70;69.81
6835;BME280;3455;42.150;24.734;2022-08-19T03:15:25;67842.06;;;23.85;69.16
6835;BME280;3455;42.150;24.734;2022-08-19T03:17:52;67842.72;;;23.90;68.74
6835;BME280;3455;42.150;24.734;2022-08-19T03:20:19;67845.16;;;23.81;69.24
6835;BME280;3455;42.150;24.734;2022-08-19T03:22:46;67868.88;;;24.08;67.65
6835;BME280;3455;42.150;24.734;2022-08-19T03:25:14;67873.81;;;24.10;67.30
6835;BME280;3455;42.150;24.734;2022-08-19T03:27:41;67852.56;;;23.94;68.39
6835;BME280;3455;42.150;24.734;2022-08-19T03:30:10;67828.34;;;23.91;68.87
6835;BME280;3455;42.150;24.734;2022-08-19T03:32:36;67831.84;;;23.94;69.71
6835;BME280;3455;42.150;24.734;2022-08-19T03:35:04;67870.44;;;23.96;69.86
6835;BME280;3455;42.150;24.734;2022-08-19T03:37:31;67809.66;;;23.75;70.88
6835;BME280;3455;42.150;24.734;2022-08-19T03:39:58;67817.16;;;23.77;71.09
6835;BME280;3455;42.150;24.734;2022-08-19T03:42:26;67824.69;;;23.79;70.89
6835;BME280;3455;42.150;24.734;2022-08-19T03:44:53;67856.06;;;23.97;70.26
6835;BME280;3455;42.150;24.734;2022-08-19T03:47:19;67826.16;;;23.98;70.39
6835;BME280;3455;42.150;24.734;2022-08-19T03:49:46;67884.69;;;24.06;70.35
6835;BME280;3455;42.150;24.734;2022-08-19T03:52:13;67864.88;;;24.09;71.13
6835;BME280;3455;42.150;24.734;2022-08-19T03:54:41;67819.28;;;24.01;71.89
6835;BME280;3455;42.150;24.734;2022-08-19T03:57:08;67882.03;;;24.02;70.85
6835;BME280;3455;42.150;24.734;2022-08-19T03:59:37;67841.63;;;23.94;70.96
6835;BME280;3455;42.150;24.734;2022-08-19T04:02:07;67886.31;;;24.19;71.20
6835;BME280;3455;42.150;24.734;2022-08-19T04:04:35;67835.41;;;24.02;70.85
6835;BME280;3455;42.150;24.734;2022-08-19T04:07:03;67859.22;;;23.98;71.84
6835;BME280;3455;42.150;24.734;2022-08-19T04:09:30;67851.91;;;23.89;71.95
6835;BME280;3455;42.150;24.734;2022-08-19T04:11:58;67837.03;;;23.94;72.27
6835;BME280;3455;42.150;24.734;2022-08-19T04:14:27;67845.44;;;24.20;71.48
6835;BME280;3455;42.150;24.734;2022-08-19T04:16:57;67935.56;;;24.40;70.63
6835;BME280;3455;42.150;24.734;2022-08-19T04:19:24;67858.84;;;24.32;71.54
6835;BME280;3455;42.150;24.734;2022-08-19T04:21:53;67873.25;;;24.31;71.52
6835;BME280;3455;42.150;24.734;2022-08-19T04:24:21;67889.03;;;24.08;71.80
6835;BME280;3455;42.150;24.734;2022-08-19T04:26:48;67824.22;;;24.24;71.44
6835;BME280;3455;42.150;24.734;2022-08-19T04:29:17;67899.97;;;24.08;72.29
6835;BME280;3455;42.150;24.734;2022-08-19T04:31:48;67855.47;;;23.97;72.95
6835;BME280;3455;42.150;24.734;2022-08-19T04:34:18;67881.97;;;24.18;72.29
6835;BME280;3455;42.150;24.734;2022-08-19T04:36:48;67853.59;;;23.86;72.24
6835;BME280;3455;42.150;24.734;2022-08-19T04:39:19;67848.03;;;23.99;71.93
6835;BME280;3455;42.150;24.734;2022-08-19T04:41:46;67822.50;;;23.86;71.67
6835;BME280;3455;42.150;24.734;2022-08-19T04:44:31;67872.56;;;24.05;70.42
6835;BME280;3455;42.150;24.734;2022-08-19T04:46:58;67909.38;;;24.21;69.35
6835;BME280;3455;42.150;24.734;2022-08-19T04:49:27;67873.53;;;24.13;69.11
6835;BME280;3455;42.150;24.734;2022-08-19T04:51:55;67850.50;;;24.10;69.05
6835;BME280;3455;42.150;24.734;2022-08-19T04:54:23;67923.88;;;24.29;68.44
6835;BME280;3455;42.150;24.734;2022-08-19T04:56:51;68006.94;;;24.39;67.86
6835;BME280;3455;42.150;24.734;2022-08-19T04:59:19;67917.59;;;24.33;67.57
6835;BME280;3455;42.150;24.734;2022-08-19T05:01:46;67863.19;;;24.13;68.03
6835;BME280;3455;42.150;24.734;2022-08-19T05:04:16;67925.13;;;24.35;66.93
6835;BME280;3455;42.150;24.734;2022-08-19T05:06:46;67938.84;;;24.29;67.19
6835;BME280;3455;42.150;24.734;2022-08-19T05:09:14;67919.66;;;24.53;66.66
6835;BME280;3455;42.150;24.734;2022-08-19T05:11:41;67937.59;;;24.60;66.62
6835;BME280;3455;42.150;24.734;2022-08-19T05:14:09;67947.59;;;24.73;66.09
6835;BME280;3455;42.150;24.734;2022-08-19T05:16:38;67922.41;;;24.46;66.71
6835;BME280;3455;42.150;24.734;2022-08-19T05:19:05;67997.25;;;24.80;66.54
6835;BME280;3455;42.150;24.734;2022-08-19T05:21:51;68026.66;;;25.20;65.15
6835;BME280;3455;42.150;24.734;2022-08-19T05:24:36;68050.34;;;25.22;64.27
6835;BME280;3455;42.150;24.734;2022-08-19T05:27:03;68101.78;;;25.68;63.03
6835;BME280;3455;42.150;24.734;2022-08-19T05:29:31;68229.09;;;26.66;59.59
6835;BME280;3455;42.150;24.734;2022-08-19T05:32:00;68404.44;;;27.96;55.57
6835;BME280;3455;42.150;24.734;2022-08-19T05:34:27;68552.22;;;28.85;50.70
6835;BME280;3455;42.150;24.734;2022-08-19T05:36:57;68618.06;;;29.51;49.21
6835;BME280;3455;42.150;24.734;2022-08-19T05:39:27;68734.81;;;30.19;45.94
6835;BME280;3455;42.150;24.734;2022-08-19T05:41:56;68780.97;;;30.37;45.57
6835;BME280;3455;42.150;24.734;2022-08-19T05:44:24;68797.81;;;30.58;45.42
6835;BME280;3455;42.150;24.734;2022-08-19T05:46:51;69009.56;;;31.88;42.79
6835;BME280;3455;42.150;24.734;2022-08-19T05:49:20;69033.91;;;32.23;41.67
6835;BME280;3455;42.150;24.734;2022-08-19T05:51:48;69216.38;;;33.09;38.67
6835;BME280;3455;42.150;24.734;2022-08-19T05:54:17;69221.75;;;33.18;39.02
6835;BME280;3455;42.150;24.734;2022-08-19T05:56:45;69188.59;;;32.80;39.21
6835;BME280;3455;42.150;24.734;2022-08-19T05:59:13;69140.31;;;32.93;38.45
6835;BME280;3455;42.150;24.734;2022-08-19T06:01:43;69264.03;;;33.36;37.71
6835;BME280;3455;42.150;24.734;2022-08-19T06:04:10;69271.47;;;33.70;36.84
6835;BME280;3455;42.150;24.734;2022-08-19T06:06:38;69382.75;;;34.14;36.46
6835;BME280;3455;42.150;24.734;2022-08-19T06:09:07;69354.13;;;33.92;36.54
6835;BME280;3455;42.150;24.734;2022-08-19T06:11:39;69532.00;;;34.87;35.11
6835;BME280;3455;42.150;24.734;2022-08-19T06:14:09;69529.03;;;34.84;33.99
6835;BME280;3455;42.150;24.734;2022-08-19T06:16:38;69649.22;;;35.38;33.78
6835;BME280;3455;42.150;24.734;2022-08-19T06:19:07;69635.16;;;35.40;32.76
6835;BME280;3455;42.150;24.734;2022-08-19T06:21:35;69729.81;;;36.08;32.04
6835;BME280;3455;42.150;24.734;2022-08-19T06:24:04;69859.25;;;36.79;30.08
6835;BME280;3455;42.150;24.734;2022-08-19T06:26:31;69658.50;;;35.78;32.18
6835;BME280;3455;42.150;24.734;2022-08-19T06:29:01;69488.19;;;34.99;33.02
6835;BME280;3455;42.150;24.734;2022-08-19T06:31:29;69699.09;;;35.91;32.30
6835;BME280;3455;42.150;24.734;2022-08-19T06:33:57;69846.66;;;36.59;30.56
6835;BME280;3455;42.150;24.734;2022-08-19T06:36:25;69850.09;;;36.53;30.81
6835;BME280;3455;42.150;24.734;2022-08-19T06:38:56;69773.44;;;36.23;30.87
6835;BME280;3455;42.150;24.734;2022-08-19T06:41:24;69895.97;;;37.06;29.83
6835;BME280;3455;42.150;24.734;2022-08-19T06:43:51;69887.41;;;36.76;30.15
6835;BME280;3455;42.150;24.734;2022-08-19T06:46:20;69790.41;;;36.44;31.02
6835;BME280;3455;42.150;24.734;2022-08-19T06:48:47;69916.25;;;36.82;30.21
6835;BME280;3455;42.150;24.734;2022-08-19T06:51:15;69886.47;;;36.98;30.15
6835;BME280;3455;42.150;24.734;2022-08-19T06:53:44;70027.78;;;37.40;29.41
6835;BME280;3455;42.150;24.734;2022-08-19T06:56:13;70148.25;;;38.21;28.76
6835;BME280;3455;42.150;24.734;2022-08-19T06:58:40;70339.09;;;39.12;28.11
6835;BME280;3455;42.150;24.734;2022-08-19T07:01:07;70271.19;;;38.79;27.98
6835;BME280;3455;42.150;24.734;2022-08-19T07:03:37;70389.75;;;39.31;27.53
6835;BME280;3455;42.150;24.734;2022-08-19T07:06:05;70364.31;;;39.23;27.79
6835;BME280;3455;42.150;24.734;2022-08-19T07:08:33;70195.97;;;38.71;28.25
6835;BME280;3455;42.150;24.734;2022-08-19T07:11:02;70307.81;;;39.08;28.03
6835;BME280;3455;42.150;24.734;2022-08-19T07:13:28;70493.06;;;39.79;27.23
6835;BME280;3455;42.150;24.734;2022-08-19T07:16:03;70542.38;;;40.03;26.85
6835;BME280;3455;42.150;24.734;2022-08-19T07:18:30;70726.75;;;40.88;25.98
6835;BME280;3455;42.150;24.734;2022-08-19T07:21:04;70806.03;;;41.13;23.66
6835;BME280;3455;42.150;24.734;2022-08-19T07:23:31;70365.47;;;39.24;25.70
6835;BME280;3455;42.150;24.734;2022-08-19T07:25:58;70653.22;;;40.75;23.59
6835;BME280;3455;42.150;24.734;2022-08-19T07:28:30;70701.91;;;40.90;23.38
6835;BME280;3455;42.150;24.734;2022-08-19T07:30:57;70758.69;;;41.13;23.16
6835;BME280;3455;42.150;24.734;2022-08-19T07:33:24;70797.44;;;41.12;23.00
6835;BME280;3455;42.150;24.734;2022-08-19T07:35:52;70953.16;;;42.00;22.17
6835;BME280;3455;42.150;24.734;2022-08-19T07:38:22;70874.06;;;41.73;22.39
6835;BME280;3455;42.150;24.734;2022-08-19T07:40:48;70621.78;;;40.66;23.36
6835;BME280;3455;42.150;24.734;2022-08-19T07:43:16;70376.81;;;39.33;24.59
6835;BME280;3455;42.150;24.734;2022-08-19T07:45:45;70516.34;;;39.99;24.36
6835;BME280;3455;42.150;24.734;2022-08-19T07:48:12;70624.06;;;40.59;23.91
6835;BME280;3455;42.150;24.734;2022-08-19T07:50:39;70703.78;;;40.96;23.35
6835;BME280;3455;42.150;24.734;2022-08-19T07:53:06;70812.66;;;41.43;23.41
6835;BME280;3455;42.150;24.734;2022-08-19T07:55:34;70696.00;;;40.89;23.62
6835;BME280;3455;42.150;24.734;2022-08-19T07:58:01;70697.06;;;40.81;23.70
6835;BME280;3455;42.150;24.734;2022-08-19T08:00:30;70722.84;;;41.08;23.16
6835;BME280;3455;42.150;24.734;2022-08-19T08:02:57;70692.88;;;41.23;24.89
6835;BME280;3455;42.150;24.734;2022-08-19T08:05:24;71086.38;;;42.32;22.73
6835;BME280;3455;42.150;24.734;2022-08-19T08:08:22;71189.56;;;43.11;22.58
6835;BME280;3455;42.150;24.734;2022-08-19T08:11:08;71259.00;;;43.52;21.85
6835;BME280;3455;42.150;24.734;2022-08-19T08:13:36;70876.84;;;41.62;23.31
6835;BME280;3455;42.150;24.734;2022-08-19T08:16:03;70812.72;;;41.48;24.02
6835;BME280;3455;42.150;24.734;2022-08-19T08:18:30;71154.31;;;42.94;22.62
6835;BME280;3455;42.150;24.734;2022-08-19T08:20:57;71610.28;;;45.05;19.88
6835;BME280;3455;42.150;24.734;2022-08-19T08:23:25;71466.94;;;44.29;20.79
6835;BME280;3455;42.150;24.734;2022-08-19T08:25:53;71494.25;;;44.66;20.47
6835;BME280;3455;42.150;24.734;2022-08-19T08:28:22;71508.81;;;44.46;20.55
6835;BME280;3455;42.150;24.734;2022-08-19T08:30:50;71388.53;;;43.94;21.32
6835;BME280;3455;42.150;24.734;2022-08-19T08:33:18;71594.63;;;44.92;20.41
6835;BME280;3455;42.150;24.734;2022-08-19T08:35:47;71725.34;;;45.69;19.46
6835;BME280;3455;42.150;24.734;2022-08-19T08:38:14;71642.41;;;45.21;20.14
6835;BME280;3455;42.150;24.734;2022-08-19T08:40:45;71923.66;;;46.49;19.23
6835;BME280;3455;42.150;24.734;2022-08-19T08:43:23;71841.31;;;46.11;19.07
6835;BME280;3455;42.150;24.734;2022-08-19T08:46:00;71953.50;;;46.88;19.44
6835;BME280;3455;42.150;24.734;2022-08-19T08:48:36;72159.09;;;47.71;18.17
6835;BME280;3455;42.150;24.734;2022-08-19T08:51:10;72181.38;;;47.44;18.23
6835;BME280;3455;42.150;24.734;2022-08-19T08:53:38;72012.06;;;46.92;18.88
6835;BME280;3455;42.150;24.734;2022-08-19T08:56:09;72276.22;;;48.02;17.18
6835;BME280;3455;42.150;24.734;2022-08-19T08:58:47;72018.72;;;46.97;18.68
6835;BME280;3455;42.150;24.734;2022-08-19T09:01:16;72233.31;;;47.74;17.88
6835;BME280;3455;42.150;24.734;2022-08-19T09:03:45;71949.31;;;46.48;18.56
6835;BME280;3455;42.150;24.734;2022-08-19T09:06:16;72060.19;;;47.14;18.71
6835;BME280;3455;42.150;24.734;2022-08-19T09:08:52;72160.69;;;47.58;18.03
6835;BME280;3455;42.150;24.734;2022-08-19T09:11:32;71955.06;;;46.75;18.36
6835;BME280;3455;42.150;24.734;2022-08-19T09:14:10;72294.78;;;48.04;18.22
6835;BME280;3455;42.150;24.734;2022-08-19T09:16:41;72218.09;;;48.14;17.40
6835;BME280;3455;42.150;24.734;2022-08-19T09:19:08;72305.19;;;48.17;17.19
6835;BME280;3455;42.150;24.734;2022-08-19T09:21:36;72286.34;;;48.17;17.35
6835;BME280;3455;42.150;24.734;2022-08-19T09:24:04;71968.94;;;46.83;18.26
6835;BME280;3455;42.150;24.734;2022-08-19T09:26:32;72083.69;;;47.25;17.60
6835;BME280;3455;42.150;24.734;2022-08-19T09:29:00;71869.94;;;46.49;18.15
6835;BME280;3455;42.150;24.734;2022-08-19T09:31:29;71921.06;;;46.37;17.68
6835;BME280;3455;42.150;24.734;2022-08-19T09:33:58;71907.91;;;46.35;18.18
6835;BME280;3455;42.150;24.734;2022-08-19T09:36:27;72483.28;;;49.04;16.25
6835;BME280;3455;42.150;24.734;2022-08-19T09:38:58;72290.34;;;48.23;16.84
6835;BME280;3455;42.150;24.734;2022-08-19T09:41:26;72090.50;;;47.40;17.07
6835;BME280;3455;42.150;24.734;2022-08-19T09:43:54;72104.59;;;47.25;17.09
6835;BME280;3455;42.150;24.734;2022-08-19T09:46:24;72260.47;;;48.09;16.71
6835;BME280;3455;42.150;24.734;2022-08-19T09:48:53;72258.59;;;48.03;16.79
6835;BME280;3455;42.150;24.734;2022-08-19T09:51:22;72474.16;;;48.96;15.68
6835;BME280;3455;42.150;24.734;2022-08-19T09:53:50;72563.28;;;49.58;15.21
6835;BME280;3455;42.150;24.734;2022-08-19T09:56:20;72669.56;;;49.65;15.82
6835;BME280;3455;42.150;24.734;2022-08-19T09:58:48;72352.66;;;48.46;16.57
6835;BME280;3455;42.150;24.734;2022-08-19T10:01:19;71661.91;;;45.31;18.33
6835;BME280;3455;42.150;24.734;2022-08-19T10:03:49;71841.38;;;46.15;17.77
6835;BME280;3455;42.150;24.734;2022-08-19T10:06:18;71932.78;;;46.61;17.41
6835;BME280;3455;42.150;24.734;2022-08-19T10:08:45;72202.53;;;47.57;16.95
6835;BME280;3455;42.150;24.734;2022-08-19T10:11:13;72301.09;;;48.23;15.94
6835;BME280;3455;42.150;24.734;2022-08-19T10:13:43;72807.28;;;50.50;15.16
6835;BME280;3455;42.150;24.734;2022-08-19T10:16:12;71978.75;;;46.79;17.90
6835;BME280;3455;42.150;24.734;2022-08-19T10:18:39;72343.13;;;48.31;16.01
6835;BME280;3455;42.150;24.734;2022-08-19T10:21:08;72073.28;;;47.48;16.95
6835;BME280;3455;42.150;24.734;2022-08-19T10:23:38;72380.66;;;48.74;15.51
6835;BME280;3455;42.150;24.734;2022-08-19T10:26:06;72730.75;;;49.99;14.78
6835;BME280;3455;42.150;24.734;2022-08-19T10:28:33;72914.06;;;50.92;13.50
6835;BME280;3455;42.150;24.734;2022-08-19T10:31:06;72442.03;;;48.74;15.51
6835;BME280;3455;42.150;24.734;2022-08-19T10:33:34;72178.56;;;47.92;15.53
6835;BME280;3455;42.150;24.734;2022-08-19T10:36:02;72531.53;;;48.90;15.31
6835;BME280;3455;42.150;24.734;2022-08-19T10:38:29;72773.31;;;50.30;14.54
6835;BME280;3455;42.150;24.734;2022-08-19T10:40:58;72614.81;;;49.92;14.32
6835;BME280;3455;42.150;24.734;2022-08-19T10:43:24;72826.47;;;50.48;14.17
6835;BME280;3455;42.150;24.734;2022-08-19T10:45:52;72521.00;;;49.20;15.08
6835;BME280;3455;42.150;24.734;2022-08-19T10:48:20;72748.84;;;50.05;14.31
6835;BME280;3455;42.150;24.734;2022-08-19T10:50:47;72379.47;;;48.57;14.52
6835;BME280;3455;42.150;24.734;2022-08-19T10:53:31;72452.84;;;48.94;15.00
6835;BME280;3455;42.150;24.734;2022-08-19T10:55:59;72305.88;;;48.22;15.26
6835;BME280;3455;42.150;24.734;2022-08-19T10:58:43;72292.06;;;48.20;14.97
6835;BME280;3455;42.150;24.734;2022-08-19T11:01:10;72538.53;;;49.30;14.24
6835;BME280;3455;42.150;24.734;2022-08-19T11:03:37;72806.84;;;50.42;13.58
6835;BME280;3455;42.150;24.734;2022-08-19T11:06:06;72699.31;;;49.86;13.88
6835;BME280;3455;42.150;24.734;2022-08-19T11:08:35;72601.44;;;49.44;14.88
6835;BME280;3455;42.150;24.734;2022-08-19T11:11:05;72311.41;;;48.31;14.48
6835;BME280;3455;42.150;24.734;2022-08-19T11:13:34;72483.72;;;48.95;13.95
6835;BME280;3455;42.150;24.734;2022-08-19T11:16:05;72390.84;;;48.94;13.58
6835;BME280;3455;42.150;24.734;2022-08-19T11:18:34;72611.84;;;49.58;14.11
6835;BME280;3455;42.150;24.734;2022-08-19T11:21:10;72838.47;;;50.64;13.37
6835;BME280;3455;42.150;24.734;2022-08-19T11:23:37;72797.78;;;50.55;13.16
6835;BME280;3455;42.150;24.734;2022-08-19T11:26:06;72602.63;;;49.77;13.48
6835;BME280;3455;42.150;24.734;2022-08-19T11:28:32;72677.81;;;49.91;13.44
6835;BME280;3455;42.150;24.734;2022-08-19T11:30:59;72445.97;;;48.95;14.16
6835;BME280;3455;42.150;24.734;2022-08-19T11:33:28;72514.31;;;49.14;13.89
6835;BME280;3455;42.150;24.734;2022-08-19T11:35:57;72027.00;;;47.32;15.01
6835;BME280;3455;42.150;24.734;2022-08-19T11:38:24;71845.50;;;46.51;15.45
6835;BME280;3455;42.150;24.734;2022-08-19T11:40:57;71882.69;;;46.64;15.71
6835;BME280;3455;42.150;24.734;2022-08-19T11:43:26;72299.66;;;48.08;14.84
6835;BME280;3455;42.150;24.734;2022-08-19T11:45:53;72171.34;;;47.90;14.54
6835;BME280;3455;42.150;24.734;2022-08-19T11:48:19;72307.41;;;48.42;14.13
6835;BME280;3455;42.150;24.734;2022-08-19T11:50:48;72515.47;;;49.31;13.66
6835;BME280;3455;42.150;24.734;2022-08-19T11:53:15;72597.94;;;49.51;13.21
6835;BME280;3455;42.150;24.734;2022-08-19T11:55:44;72948.78;;;51.00;12.21
6835;BME280;3455;42.150;24.734;2022-08-19T11:58:11;73001.19;;;51.40;12.76
6835;BME280;3455;42.150;24.734;2022-08-19T12:00:39;72427.44;;;48.98;13.80
6835;BME280;3455;42.150;24.734;2022-08-19T12:03:07;72517.38;;;49.37;13.83
6835;BME280;3455;42.150;24.734;2022-08-19T12:05:36;72849.88;;;50.81;13.14
6835;BME280;3455;42.150;24.734;2022-08-19T12:08:03;72657.69;;;49.90;12.96
6835;BME280;3455;42.150;24.734;2022-08-19T12:10:30;72674.22;;;49.92;13.93
6835;BME280;3455;42.150;24.734;2022-08-19T12:12:57;72874.03;;;50.88;12.77
6835;BME280;3455;42.150;24.734;2022-08-19T12:15:24;72818.63;;;50.45;13.09
6835;BME280;3455;42.150;24.734;2022-08-19T12:17:54;72612.53;;;49.63;13.84
6835;BME280;3455;42.150;24.734;2022-08-19T12:20:23;72205.03;;;48.01;14.37
6835;BME280;3455;42.150;24.734;2022-08-19T12:22:51;72276.00;;;48.45;14.17
6835;BME280;3455;42.150;24.734;2022-08-19T12:25:18;72466.66;;;49.33;13.47
6835;BME280;3455;42.150;24.734;2022-08-19T12:27:46;72761.22;;;50.24;13.40
6835;BME280;3455;42.150;24.734;2022-08-19T12:30:13;72414.16;;;48.91;14.39
6835;BME280;3455;42.150;24.734;2022-08-19T12:32:40;72376.03;;;48.84;14.35
6835;BME280;3455;42.150;24.734;2022-08-19T12:35:09;72568.00;;;49.53;13.99
6835;BME280;3455;42.150;24.734;2022-08-19T12:37:37;72484.09;;;49.18;13.72
6835;BME280;3455;42.150;24.734;2022-08-19T12:40:04;72090.09;;;47.53;14.64
6835;BME280;3455;42.150;24.734;2022-08-19T12:42:31;72105.44;;;47.80;15.03
6835;BME280;3455;42.150;24.734;2022-08-19T12:44:58;72097.19;;;47.66;14.90
6835;BME280;3455;42.150;24.734;2022-08-19T12:47:25;72102.59;;;47.50;14.64
6835;BME280;3455;42.150;24.734;2022-08-19T12:49:52;72221.88;;;48.06;14.57
6835;BME280;3455;42.150;24.734;2022-08-19T12:52:22;72371.53;;;48.66;13.77
6835;BME280;3455;42.150;24.734;2022-08-19T12:54:49;72432.47;;;49.11;14.04
6835;BME280;3455;42.150;24.734;2022-08-19T12:57:16;72385.34;;;49.05;13.78
6835;BME280;3455;42.150;24.734;2022-08-19T12:59:42;72418.00;;;48.87;13.71
6835;BME280;3455;42.150;24.734;2022-08-19T13:02:09;72320.59;;;48.44;14.25
6835;BME280;3455;42.150;24.734;2022-08-19T13:04:36;72563.28;;;49.58;13.47
6835;BME280;3455;42.150;24.734;2022-08-19T13:07:06;72121.72;;;47.89;14.11
6835;BME280;3455;42.150;24.734;2022-08-19T13:09:35;72077.44;;;47.47;14.59
6835;BME280;3455;42.150;24.734;2022-08-19T13:12:03;72156.34;;;47.87;14.98
6835;BME280;3455;42.150;24.734;2022-08-19T13:14:33;72047.53;;;47.45;14.93
6835;BME280;3455;42.150;24.734;2022-08-19T13:17:00;72109.84;;;47.56;14.76